createdAt,value
2017-10-10T00:00:30.135Z,12.37
2017-10-10T00:01:30.131Z,12.37
2017-10-10T00:02:30.131Z,12.49
2017-10-10T00:03:30.129Z,12.39
2017-10-10T00:04:30.130Z,12.47
2017-10-10T00:05:30.129Z,12.49
2017-10-10T00:06:30.129Z,12.43
2017-10-10T00:07:30.127Z,12.43
2017-10-10T00:08:30.126Z,12.43
2017-10-10T00:09:30.127Z,12.43
2017-10-10T00:10:30.125Z,12.50
2017-10-10T00:11:30.127Z,12.45
2017-10-10T00:12:30.126Z,12.42
2017-10-10T00:13:30.123Z,12.45
2017-10-10T00:14:30.123Z,12.37
2017-10-10T00:15:30.123Z,12.40
2017-10-10T00:16:30.122Z,12.39
2017-10-10T00:17:30.125Z,12.43
2017-10-10T00:18:30.121Z,12.54
2017-10-10T00:19:30.121Z,12.42
2017-10-10T00:20:30.120Z,12.36
2017-10-10T00:21:30.120Z,12.37
2017-10-10T00:22:30.120Z,12.43
2017-10-10T00:23:30.118Z,12.40
2017-10-10T00:24:30.117Z,12.45
2017-10-10T00:25:30.116Z,12.45
2017-10-10T00:26:30.118Z,12.46
2017-10-10T00:27:30.116Z,12.42
2017-10-10T00:28:30.116Z,12.37
2017-10-10T00:29:30.116Z,12.42
2017-10-10T00:30:30.117Z,12.45
2017-10-10T00:31:30.117Z,12.39
2017-10-10T00:32:30.114Z,12.40
2017-10-10T00:33:30.114Z,12.43
2017-10-10T00:34:30.114Z,12.43
2017-10-10T00:35:30.112Z,12.45
2017-10-10T00:36:30.111Z,12.42
2017-10-10T00:37:30.112Z,12.37
2017-10-10T00:38:30.110Z,12.36
2017-10-10T00:39:30.114Z,12.42
2017-10-10T00:40:30.108Z,12.42
2017-10-10T00:41:30.109Z,12.39
2017-10-10T00:42:30.109Z,12.39
2017-10-10T00:43:30.108Z,12.37
2017-10-10T00:44:30.108Z,12.45
2017-10-10T00:45:30.108Z,12.40
2017-10-10T00:46:30.107Z,12.35
2017-10-10T00:47:30.108Z,12.39
2017-10-10T00:48:30.107Z,12.40
2017-10-10T00:49:30.107Z,12.35
2017-10-10T00:50:30.106Z,12.31
2017-10-10T00:51:30.104Z,12.35
2017-10-10T00:52:30.105Z,12.37
2017-10-10T00:53:30.105Z,12.35
2017-10-10T00:54:30.102Z,12.29
2017-10-10T00:55:30.104Z,12.37
2017-10-10T00:56:30.103Z,12.35
2017-10-10T00:57:30.103Z,12.35
2017-10-10T00:58:30.106Z,12.36
2017-10-10T00:59:30.102Z,12.39
2017-10-10T01:00:30.101Z,12.35
2017-10-10T01:01:30.101Z,12.31
2017-10-10T01:02:30.102Z,12.25
2017-10-10T01:03:30.101Z,12.32
2017-10-10T01:04:30.101Z,12.32
2017-10-10T01:05:30.100Z,12.25
2017-10-10T01:06:30.100Z,12.35
2017-10-10T01:07:30.099Z,12.28
2017-10-10T01:08:30.098Z,12.25
2017-10-10T01:09:30.100Z,12.31
2017-10-10T01:10:30.098Z,12.32
2017-10-10T01:11:30.099Z,12.28
2017-10-10T01:12:30.099Z,12.31
2017-10-10T01:13:30.105Z,12.35
2017-10-10T01:14:30.097Z,12.28
2017-10-10T01:15:30.096Z,12.25
2017-10-10T01:16:30.097Z,12.24
2017-10-10T01:17:30.095Z,12.28
2017-10-10T01:18:30.095Z,12.25
2017-10-10T01:19:30.097Z,12.32
2017-10-10T01:20:30.096Z,12.31
2017-10-10T01:21:30.095Z,12.27
2017-10-10T01:22:30.094Z,12.22
2017-10-10T01:23:30.096Z,12.24
2017-10-10T01:24:30.093Z,12.24
2017-10-10T01:25:30.100Z,12.27
2017-10-10T01:26:30.093Z,12.35
2017-10-10T01:27:30.092Z,12.25
2017-10-10T01:28:30.091Z,12.32
2017-10-10T01:29:30.092Z,12.32
2017-10-10T01:30:30.092Z,12.28
2017-10-10T01:31:30.093Z,12.32
2017-10-10T01:32:30.090Z,12.24
2017-10-10T01:33:30.089Z,12.22
2017-10-10T01:34:30.090Z,12.22
2017-10-10T01:35:30.091Z,12.36
2017-10-10T01:36:30.088Z,12.21
2017-10-10T01:37:30.089Z,12.28
2017-10-10T01:38:30.090Z,12.28
2017-10-10T01:39:30.088Z,12.25
2017-10-10T01:40:30.087Z,12.24
2017-10-10T01:41:30.088Z,12.31
2017-10-10T01:42:30.087Z,12.28
2017-10-10T01:43:30.087Z,12.27
2017-10-10T01:44:30.086Z,12.22
2017-10-10T01:45:30.084Z,12.31
2017-10-10T01:46:30.084Z,12.27
2017-10-10T01:47:30.085Z,12.31
2017-10-10T01:48:30.083Z,12.25
2017-10-10T01:49:30.084Z,12.24
2017-10-10T01:50:30.087Z,12.27
2017-10-10T01:51:30.082Z,12.31
2017-10-10T01:52:30.082Z,12.37
2017-10-10T01:53:30.082Z,12.27
2017-10-10T01:54:30.081Z,12.24
2017-10-10T01:55:30.080Z,12.29
2017-10-10T01:56:30.077Z,12.24
2017-10-10T01:57:30.078Z,12.29
2017-10-10T01:58:30.078Z,12.27
2017-10-10T01:59:30.077Z,12.27
2017-10-10T02:00:30.076Z,12.20
2017-10-10T02:01:30.077Z,12.20
2017-10-10T02:02:30.075Z,12.21
2017-10-10T02:03:30.076Z,12.17
2017-10-10T02:04:30.073Z,12.10
2017-10-10T02:05:30.073Z,12.18
2017-10-10T02:06:30.073Z,12.22
2017-10-10T02:07:30.074Z,12.15
2017-10-10T02:08:30.070Z,12.12
2017-10-10T02:09:30.071Z,12.17
2017-10-10T02:10:30.069Z,12.13
2017-10-10T02:11:30.070Z,12.13
2017-10-10T02:12:30.068Z,12.12
2017-10-10T02:13:30.068Z,12.09
2017-10-10T02:14:30.067Z,12.13
2017-10-10T02:15:30.067Z,12.09
2017-10-10T02:16:30.069Z,12.02
2017-10-10T02:17:30.067Z,12.02
2017-10-10T02:18:30.066Z,12.03
2017-10-10T02:19:30.064Z,12.04
2017-10-10T02:20:30.064Z,12.04
2017-10-10T02:21:30.062Z,12.04
2017-10-10T02:22:30.062Z,12.04
2017-10-10T02:23:30.061Z,12.06
2017-10-10T02:24:30.059Z,12.03
2017-10-10T02:25:30.060Z,12.03
2017-10-10T02:26:30.058Z,11.97
2017-10-10T02:27:30.059Z,12.04
2017-10-10T02:28:30.057Z,12.10
2017-10-10T02:29:30.056Z,12.07
2017-10-10T02:30:30.056Z,12.09
2017-10-10T02:31:30.055Z,12.18
2017-10-10T02:32:30.055Z,12.18
2017-10-10T02:33:30.054Z,12.17
2017-10-10T02:34:30.057Z,12.21
2017-10-10T02:35:30.060Z,12.17
2017-10-10T02:36:30.053Z,12.25
2017-10-10T02:37:30.053Z,12.28
2017-10-10T02:38:30.051Z,12.35
2017-10-10T02:39:30.050Z,12.22
2017-10-10T02:40:30.052Z,12.24
2017-10-10T02:41:30.048Z,12.28
2017-10-10T02:42:30.048Z,12.27
2017-10-10T02:43:30.048Z,12.28
2017-10-10T02:44:30.045Z,12.28
2017-10-10T02:45:30.048Z,12.25
2017-10-10T02:46:30.045Z,12.36
2017-10-10T02:47:30.044Z,12.27
2017-10-10T02:48:30.050Z,12.31
2017-10-10T02:49:30.042Z,12.29
2017-10-10T02:50:30.041Z,12.28
2017-10-10T02:51:30.043Z,12.37
2017-10-10T02:52:30.040Z,12.39
2017-10-10T02:53:30.041Z,12.37
2017-10-10T02:54:30.038Z,12.37
2017-10-10T02:55:30.038Z,12.29
2017-10-10T02:56:30.037Z,12.39
2017-10-10T02:57:30.037Z,12.40
2017-10-10T02:58:30.036Z,12.43
2017-10-10T02:59:30.037Z,12.45
2017-10-10T03:00:30.037Z,12.39
2017-10-10T03:01:30.033Z,12.39
2017-10-10T03:02:30.033Z,12.42
2017-10-10T03:03:30.035Z,12.45
2017-10-10T03:04:30.031Z,12.42
2017-10-10T03:05:30.031Z,12.45
2017-10-10T03:06:30.031Z,12.42
2017-10-10T03:07:30.030Z,12.43
2017-10-10T03:08:30.029Z,12.50
2017-10-10T03:09:30.029Z,12.45
2017-10-10T03:10:30.029Z,12.50
2017-10-10T03:11:30.029Z,12.37
2017-10-10T03:12:30.026Z,12.43
2017-10-10T03:13:30.029Z,12.49
2017-10-10T03:14:30.027Z,12.53
2017-10-10T03:15:30.026Z,12.46
2017-10-10T03:16:30.025Z,12.47
2017-10-10T03:17:30.025Z,12.49
2017-10-10T03:18:30.023Z,12.49
2017-10-10T03:19:30.022Z,12.54
2017-10-10T03:20:30.023Z,12.54
2017-10-10T03:21:30.020Z,12.55
2017-10-10T03:22:30.021Z,12.50
2017-10-10T03:23:30.020Z,12.53
2017-10-10T03:24:30.018Z,12.50
2017-10-10T03:25:30.022Z,12.53
2017-10-10T03:26:30.019Z,12.54
2017-10-10T03:27:30.018Z,12.60
2017-10-10T03:28:30.017Z,12.43
2017-10-10T03:29:30.016Z,12.39
2017-10-10T03:30:30.019Z,12.53
2017-10-10T03:31:30.016Z,12.53
2017-10-10T03:32:30.013Z,12.40
2017-10-10T03:33:30.015Z,12.54
2017-10-10T03:34:30.014Z,12.53
2017-10-10T03:35:30.014Z,12.55
2017-10-10T03:36:30.011Z,12.54
2017-10-10T03:37:30.012Z,12.54
2017-10-10T03:38:30.011Z,12.60
2017-10-10T03:39:30.016Z,12.57
2017-10-10T03:40:30.009Z,12.58
2017-10-10T03:41:30.010Z,12.57
2017-10-10T03:42:30.009Z,12.53
2017-10-10T03:43:30.010Z,12.58
2017-10-10T03:44:30.008Z,12.53
2017-10-10T03:45:30.007Z,12.58
2017-10-10T03:46:30.006Z,12.53
2017-10-10T03:47:30.007Z,12.55
2017-10-10T03:48:30.005Z,12.50
2017-10-10T03:49:30.005Z,12.54
2017-10-10T03:50:30.005Z,12.55
2017-10-10T03:51:30.005Z,12.54
2017-10-10T03:52:30.001Z,12.40
2017-10-10T03:53:30.003Z,12.45
2017-10-10T03:54:30.001Z,12.57
2017-10-10T03:55:30.002Z,12.53
2017-10-10T03:56:30.000Z,12.54
2017-10-10T03:57:29.999Z,12.57
2017-10-10T03:58:30.001Z,12.53
2017-10-10T03:59:29.999Z,12.57
2017-10-10T04:00:29.997Z,12.54
2017-10-10T04:01:29.998Z,12.50
2017-10-10T04:02:29.998Z,12.50
2017-10-10T04:03:29.996Z,12.58
2017-10-10T04:04:29.996Z,12.60
2017-10-10T04:05:29.994Z,12.57
2017-10-10T04:06:29.995Z,12.54
2017-10-10T04:07:29.995Z,12.54
2017-10-10T04:08:29.993Z,12.53
2017-10-10T04:09:29.993Z,12.58
2017-10-10T04:10:30.014Z,12.50
2017-10-10T04:11:29.991Z,12.53
2017-10-10T04:12:29.992Z,12.53
2017-10-10T04:13:29.990Z,12.54
2017-10-10T04:14:29.989Z,12.55
2017-10-10T04:15:29.990Z,12.55
2017-10-10T04:16:29.989Z,12.54
2017-10-10T04:17:29.988Z,12.55
2017-10-10T04:18:29.987Z,12.50
2017-10-10T04:19:29.989Z,12.60
2017-10-10T04:20:29.987Z,12.54
2017-10-10T04:21:29.985Z,12.53
2017-10-10T04:22:29.989Z,12.61
2017-10-10T04:23:29.985Z,12.47
2017-10-10T04:24:29.983Z,12.55
2017-10-10T04:25:29.983Z,12.60
2017-10-10T04:26:29.983Z,12.46
2017-10-10T04:27:29.981Z,12.53
2017-10-10T04:28:29.980Z,12.57
2017-10-10T04:29:29.981Z,12.61
2017-10-10T04:30:29.980Z,12.54
2017-10-10T04:31:29.978Z,12.60
2017-10-10T04:32:29.978Z,12.57
2017-10-10T04:33:29.976Z,12.58
2017-10-10T04:34:29.977Z,12.55
2017-10-10T04:35:29.978Z,12.58
2017-10-10T04:36:29.974Z,12.58
2017-10-10T04:37:29.975Z,12.55
2017-10-10T04:38:29.976Z,12.49
2017-10-10T04:39:29.976Z,12.58
2017-10-10T04:40:29.990Z,12.55
2017-10-10T04:41:29.972Z,12.55
2017-10-10T04:42:29.979Z,12.54
2017-10-10T04:43:29.972Z,12.58
2017-10-10T04:44:29.970Z,12.50
2017-10-10T04:45:29.968Z,12.60
2017-10-10T04:46:29.970Z,12.55
2017-10-10T04:47:29.969Z,12.50
2017-10-10T04:48:29.966Z,12.55
2017-10-10T04:49:29.967Z,12.57
2017-10-10T04:50:29.965Z,12.57
2017-10-10T04:51:29.966Z,12.58
2017-10-10T04:52:29.965Z,12.58
2017-10-10T04:53:29.964Z,12.57
2017-10-10T04:54:29.965Z,12.50
2017-10-10T04:55:29.964Z,12.54
2017-10-10T04:56:29.963Z,12.54
2017-10-10T04:57:29.962Z,12.57
2017-10-10T04:58:29.962Z,12.49
2017-10-10T04:59:29.961Z,12.55
2017-10-10T05:00:29.960Z,12.53
2017-10-10T05:01:29.959Z,12.53
2017-10-10T05:02:29.957Z,12.54
2017-10-10T05:03:29.959Z,12.57
2017-10-10T05:04:29.957Z,12.57
2017-10-10T05:05:29.967Z,12.53
2017-10-10T05:06:29.955Z,12.55
2017-10-10T05:07:29.955Z,12.50
2017-10-10T05:08:29.959Z,12.53
2017-10-10T05:09:29.956Z,12.49
2017-10-10T05:10:29.958Z,12.54
2017-10-10T05:11:29.953Z,12.57
2017-10-10T05:12:29.951Z,12.61
2017-10-10T05:13:29.951Z,12.54
2017-10-10T05:14:29.949Z,12.50
2017-10-10T05:15:29.948Z,12.54
2017-10-10T05:16:29.947Z,12.55
2017-10-10T05:17:29.948Z,12.49
2017-10-10T05:18:29.948Z,12.58
2017-10-10T05:19:29.949Z,12.49
2017-10-10T05:20:29.945Z,12.50
2017-10-10T05:21:29.944Z,12.57
2017-10-10T05:22:29.945Z,12.57
2017-10-10T05:23:29.944Z,12.57
2017-10-10T05:24:29.946Z,12.55
2017-10-10T05:25:29.943Z,12.57
2017-10-10T05:26:29.942Z,12.53
2017-10-10T05:27:29.942Z,12.61
2017-10-10T05:28:29.941Z,12.60
2017-10-10T05:29:29.939Z,12.54
2017-10-10T05:30:29.940Z,12.58
2017-10-10T05:31:29.939Z,12.55
2017-10-10T05:32:29.937Z,12.55
2017-10-10T05:33:29.939Z,12.61
2017-10-10T05:34:29.938Z,12.57
2017-10-10T05:35:29.937Z,12.55
2017-10-10T05:36:29.938Z,12.60
2017-10-10T05:37:29.943Z,12.65
2017-10-10T05:38:29.933Z,12.60
2017-10-10T05:39:29.933Z,12.61
2017-10-10T05:40:29.933Z,12.62
2017-10-10T05:41:29.932Z,12.62
2017-10-10T05:42:29.933Z,12.64
2017-10-10T05:43:29.932Z,12.64
2017-10-10T05:44:29.929Z,12.64
2017-10-10T05:45:29.930Z,12.61
2017-10-10T05:46:29.929Z,12.64
2017-10-10T05:47:29.929Z,12.64
2017-10-10T05:48:29.927Z,12.67
2017-10-10T05:49:29.926Z,12.65
2017-10-10T05:50:29.932Z,12.68
2017-10-10T05:51:29.926Z,12.67
2017-10-10T05:52:29.923Z,12.67
2017-10-10T05:53:29.924Z,12.76
2017-10-10T05:54:29.924Z,12.78
2017-10-10T05:55:29.923Z,12.80
2017-10-10T05:56:29.923Z,12.76
2017-10-10T05:57:29.921Z,12.70
2017-10-10T05:58:29.920Z,12.68
2017-10-10T05:59:29.921Z,12.75
2017-10-10T06:00:29.919Z,12.80
2017-10-10T06:01:29.918Z,12.75
2017-10-10T06:02:29.917Z,12.68
2017-10-10T06:03:29.918Z,12.82
2017-10-10T06:04:29.917Z,12.80
2017-10-10T06:05:29.915Z,12.79
2017-10-10T06:06:29.915Z,12.76
2017-10-10T06:07:29.916Z,12.79
2017-10-10T06:08:29.914Z,12.79
2017-10-10T06:09:29.912Z,12.86
2017-10-10T06:10:29.913Z,12.82
2017-10-10T06:11:29.913Z,12.80
2017-10-10T06:12:29.911Z,12.80
2017-10-10T06:13:29.911Z,12.80
2017-10-10T06:14:29.911Z,12.83
2017-10-10T06:15:29.913Z,12.85
2017-10-10T06:16:29.910Z,12.80
2017-10-10T06:17:29.908Z,12.82
2017-10-10T06:18:29.908Z,12.79
2017-10-10T06:19:29.908Z,12.85
2017-10-10T06:20:29.914Z,12.79
2017-10-10T06:21:29.905Z,12.85
2017-10-10T06:22:29.905Z,12.82
2017-10-10T06:23:29.906Z,12.85
2017-10-10T06:24:29.904Z,12.90
2017-10-10T06:25:29.918Z,12.82
2017-10-10T06:26:29.901Z,12.86
2017-10-10T06:27:29.902Z,12.86
2017-10-10T06:28:29.901Z,12.82
2017-10-10T06:29:29.901Z,12.93
2017-10-10T06:30:29.900Z,12.93
2017-10-10T06:31:29.899Z,12.94
2017-10-10T06:32:29.899Z,12.94
2017-10-10T06:33:29.919Z,12.98
2017-10-10T06:34:29.897Z,12.93
2017-10-10T06:35:29.899Z,12.93
2017-10-10T06:36:29.897Z,12.94
2017-10-10T06:37:29.896Z,12.94
2017-10-10T06:38:29.897Z,12.95
2017-10-10T06:39:29.899Z,13.01
2017-10-10T06:40:29.896Z,12.98
2017-10-10T06:41:29.894Z,13.00
2017-10-10T06:42:29.894Z,12.95
2017-10-10T06:43:29.895Z,12.98
2017-10-10T06:44:29.892Z,13.03
2017-10-10T06:45:29.893Z,13.15
2017-10-10T06:46:29.893Z,13.05
2017-10-10T06:47:29.892Z,13.13
2017-10-10T06:48:29.891Z,13.08
2017-10-10T06:49:29.904Z,13.09
2017-10-10T06:50:29.890Z,13.13
2017-10-10T06:51:29.903Z,13.18
2017-10-10T06:52:29.893Z,13.16
2017-10-10T06:53:29.888Z,13.13
2017-10-10T06:54:29.890Z,13.19
2017-10-10T06:55:29.888Z,13.11
2017-10-10T06:56:29.887Z,13.11
2017-10-10T06:57:29.887Z,13.18
2017-10-10T06:58:29.888Z,13.12
2017-10-10T06:59:29.888Z,13.15
2017-10-10T07:00:29.887Z,13.25
2017-10-10T07:01:29.885Z,13.15
2017-10-10T07:02:29.888Z,13.19
2017-10-10T07:03:29.891Z,13.20
2017-10-10T07:04:29.885Z,13.18
2017-10-10T07:05:29.885Z,13.22
2017-10-10T07:06:29.883Z,13.18
2017-10-10T07:07:29.887Z,13.20
2017-10-10T07:08:29.883Z,13.22
2017-10-10T07:09:29.883Z,13.20
2017-10-10T07:10:29.884Z,13.23
2017-10-10T07:11:29.883Z,13.18
2017-10-10T07:12:29.882Z,13.20
2017-10-10T07:13:29.883Z,13.27
2017-10-10T07:14:29.882Z,13.22
2017-10-10T07:15:29.883Z,13.27
2017-10-10T07:16:29.882Z,13.30
2017-10-10T07:17:29.882Z,13.33
2017-10-10T07:18:29.882Z,13.31
2017-10-10T07:19:29.882Z,13.33
2017-10-10T07:20:29.880Z,13.37
2017-10-10T07:21:29.881Z,13.41
2017-10-10T07:22:29.882Z,13.38
2017-10-10T07:23:29.882Z,13.38
2017-10-10T07:24:29.880Z,13.42
2017-10-10T07:25:29.880Z,13.33
2017-10-10T07:26:29.882Z,13.44
2017-10-10T07:27:29.880Z,13.38
2017-10-10T07:28:29.880Z,13.33
2017-10-10T07:29:29.880Z,13.33
2017-10-10T07:30:29.881Z,13.39
2017-10-10T07:31:29.882Z,13.44
2017-10-10T07:32:29.880Z,13.41
2017-10-10T07:33:29.880Z,13.38
2017-10-10T07:34:29.881Z,13.46
2017-10-10T07:35:29.881Z,13.50
2017-10-10T07:36:29.882Z,13.57
2017-10-10T07:37:29.880Z,13.56
2017-10-10T07:38:29.880Z,13.54
2017-10-10T07:39:29.880Z,13.54
2017-10-10T07:40:29.879Z,13.50
2017-10-10T07:41:29.881Z,13.65
2017-10-10T07:42:29.881Z,13.60
2017-10-10T07:43:29.881Z,13.60
2017-10-10T07:44:29.880Z,13.59
2017-10-10T07:45:29.879Z,13.67
2017-10-10T07:46:29.880Z,13.75
2017-10-10T07:47:29.881Z,13.67
2017-10-10T07:48:29.881Z,13.63
2017-10-10T07:49:29.882Z,13.63
2017-10-10T07:50:29.881Z,13.77
2017-10-10T07:51:29.882Z,13.74
2017-10-10T07:52:29.881Z,13.74
2017-10-10T07:53:29.884Z,13.77
2017-10-10T07:54:29.882Z,13.83
2017-10-10T07:55:29.883Z,13.79
2017-10-10T07:56:29.882Z,13.83
2017-10-10T07:57:29.882Z,13.86
2017-10-10T07:58:29.883Z,13.78
2017-10-10T07:59:29.883Z,13.79
2017-10-10T08:00:29.882Z,13.79
2017-10-10T08:01:29.885Z,13.78
2017-10-10T08:02:29.885Z,13.79
2017-10-10T08:03:29.885Z,13.81
2017-10-10T08:04:29.885Z,13.83
2017-10-10T08:05:29.885Z,13.75
2017-10-10T08:06:29.884Z,13.85
2017-10-10T08:07:29.886Z,13.87
2017-10-10T08:08:29.885Z,13.87
2017-10-10T08:09:29.885Z,13.95
2017-10-10T08:10:29.891Z,13.93
2017-10-10T08:11:29.888Z,13.85
2017-10-10T08:12:29.887Z,13.83
2017-10-10T08:13:29.888Z,13.86
2017-10-10T08:14:29.889Z,13.86
2017-10-10T08:15:29.890Z,13.81
2017-10-10T08:16:29.890Z,13.89
2017-10-10T08:17:29.889Z,13.89
2017-10-10T08:18:29.890Z,13.81
2017-10-10T08:19:29.891Z,13.92
2017-10-10T08:20:29.889Z,13.85
2017-10-10T08:21:29.890Z,13.86
2017-10-10T08:22:29.891Z,13.85
2017-10-10T08:23:29.891Z,13.87
2017-10-10T08:24:29.892Z,13.97
2017-10-10T08:25:29.893Z,13.97
2017-10-10T08:26:29.892Z,14.05
2017-10-10T08:27:29.894Z,14.05
2017-10-10T08:28:29.893Z,14.11
2017-10-10T08:29:29.893Z,14.18
2017-10-10T08:30:29.899Z,14.17
2017-10-10T08:31:29.894Z,14.25
2017-10-10T08:32:29.895Z,14.14
2017-10-10T08:33:29.895Z,14.23
2017-10-10T08:34:29.897Z,14.14
2017-10-10T08:35:29.897Z,14.18
2017-10-10T08:36:29.898Z,14.22
2017-10-10T08:37:29.899Z,14.18
2017-10-10T08:38:29.898Z,14.17
2017-10-10T08:39:29.906Z,14.18
2017-10-10T08:40:29.898Z,14.28
2017-10-10T08:41:29.900Z,14.25
2017-10-10T08:42:29.901Z,14.25
2017-10-10T08:43:29.901Z,14.17
2017-10-10T08:44:29.902Z,14.26
2017-10-10T08:45:29.902Z,14.33
2017-10-10T08:46:29.904Z,14.35
2017-10-10T08:47:29.905Z,14.45
2017-10-10T08:48:29.906Z,14.53
2017-10-10T08:49:29.906Z,14.48
2017-10-10T08:50:29.907Z,14.54
2017-10-10T08:51:29.907Z,14.62
2017-10-10T08:52:29.908Z,14.60
2017-10-10T08:53:29.909Z,14.62
2017-10-10T08:54:29.910Z,14.65
2017-10-10T08:55:29.912Z,14.65
2017-10-10T08:56:29.912Z,14.70
2017-10-10T08:57:29.912Z,14.65
2017-10-10T08:58:29.923Z,14.55
2017-10-10T08:59:29.916Z,14.59
2017-10-10T09:00:29.921Z,14.59
2017-10-10T09:01:29.917Z,14.65
2017-10-10T09:02:29.920Z,14.68
2017-10-10T09:03:29.919Z,14.70
2017-10-10T09:04:29.920Z,14.79
2017-10-10T09:05:29.922Z,14.77
2017-10-10T09:06:29.923Z,14.70
2017-10-10T09:07:29.923Z,14.72
2017-10-10T09:08:29.925Z,14.72
2017-10-10T09:09:29.925Z,14.77
2017-10-10T09:10:29.929Z,14.77
2017-10-10T09:11:29.929Z,14.69
2017-10-10T09:12:29.931Z,14.73
2017-10-10T09:13:29.932Z,14.69
2017-10-10T09:14:29.933Z,14.70
2017-10-10T09:15:29.936Z,14.79
2017-10-10T09:16:29.935Z,14.70
2017-10-10T09:17:29.936Z,14.68
2017-10-10T09:18:29.939Z,14.65
2017-10-10T09:19:29.938Z,14.63
2017-10-10T09:20:29.944Z,14.72
2017-10-10T09:21:29.943Z,14.70
2017-10-10T09:22:29.942Z,14.72
2017-10-10T09:23:29.945Z,14.79
2017-10-10T09:24:29.945Z,14.78
2017-10-10T09:25:29.948Z,14.82
2017-10-10T09:26:29.947Z,14.85
2017-10-10T09:27:29.951Z,14.96
2017-10-10T09:28:29.950Z,15.17
2017-10-10T09:29:29.953Z,15.51
2017-10-10T09:30:29.955Z,15.52
2017-10-10T09:31:29.956Z,15.49
2017-10-10T09:32:29.957Z,15.52
2017-10-10T09:33:29.958Z,15.54
2017-10-10T09:34:29.961Z,15.47
2017-10-10T09:35:29.962Z,15.31
2017-10-10T09:36:29.965Z,15.36
2017-10-10T09:37:29.967Z,15.35
2017-10-10T09:38:29.969Z,15.28
2017-10-10T09:39:29.972Z,15.15
2017-10-10T09:40:29.973Z,15.15
2017-10-10T09:41:29.975Z,15.14
2017-10-10T09:42:29.976Z,15.00
2017-10-10T09:43:29.980Z,15.02
2017-10-10T09:44:29.981Z,15.14
2017-10-10T09:45:29.996Z,15.27
2017-10-10T09:46:29.985Z,15.58
2017-10-10T09:47:29.988Z,15.75
2017-10-10T09:48:29.989Z,15.68
2017-10-10T09:49:29.992Z,15.80
2017-10-10T09:50:29.995Z,15.90
2017-10-10T09:51:29.997Z,15.98
2017-10-10T09:52:29.997Z,15.75
2017-10-10T09:53:30.001Z,15.54
2017-10-10T09:54:30.003Z,15.61
2017-10-10T09:55:30.009Z,15.75
2017-10-10T09:56:30.009Z,15.75
2017-10-10T09:57:30.011Z,15.58
2017-10-10T09:58:30.017Z,15.67
2017-10-10T09:59:30.017Z,15.67
2017-10-10T10:00:30.018Z,15.54
2017-10-10T10:01:30.022Z,15.49
2017-10-10T10:02:30.023Z,15.55
2017-10-10T10:03:30.026Z,15.64
2017-10-10T10:04:30.028Z,15.65
2017-10-10T10:05:30.032Z,15.80
2017-10-10T10:06:30.035Z,15.90
2017-10-10T10:07:30.037Z,16.01
2017-10-10T10:08:30.039Z,16.08
2017-10-10T10:09:30.041Z,16.02
2017-10-10T10:10:30.044Z,16.56
2017-10-10T10:11:30.048Z,16.51
2017-10-10T10:12:30.050Z,16.53
2017-10-10T10:13:30.053Z,16.39
2017-10-10T10:14:30.056Z,16.33
2017-10-10T10:15:30.060Z,16.04
2017-10-10T10:16:30.061Z,15.95
2017-10-10T10:17:30.065Z,15.95
2017-10-10T10:18:30.069Z,15.90
2017-10-10T10:19:30.072Z,15.91
2017-10-10T10:20:30.074Z,15.94
2017-10-10T10:21:30.079Z,15.90
2017-10-10T10:22:30.082Z,15.91
2017-10-10T10:23:30.086Z,16.04
2017-10-10T10:24:30.086Z,15.88
2017-10-10T10:25:30.092Z,15.95
2017-10-10T10:26:30.094Z,16.09
2017-10-10T10:27:30.097Z,16.10
2017-10-10T10:28:30.099Z,16.20
2017-10-10T10:29:30.102Z,16.20
2017-10-10T10:30:30.108Z,16.10
2017-10-10T10:31:30.110Z,15.94
2017-10-10T10:32:30.112Z,15.94
2017-10-10T10:33:30.116Z,16.04
2017-10-10T10:34:30.119Z,16.15
2017-10-10T10:35:30.123Z,16.32
2017-10-10T10:36:30.124Z,16.31
2017-10-10T10:37:30.128Z,16.09
2017-10-10T10:38:30.130Z,16.16
2017-10-10T10:39:30.136Z,16.15
2017-10-10T10:40:30.138Z,16.15
2017-10-10T10:41:30.142Z,16.13
2017-10-10T10:42:30.145Z,16.13
2017-10-10T10:43:30.148Z,16.31
2017-10-10T10:44:30.151Z,16.42
2017-10-10T10:45:30.153Z,16.71
2017-10-10T10:46:30.158Z,16.96
2017-10-10T10:47:30.162Z,16.93
2017-10-10T10:48:30.163Z,17.23
2017-10-10T10:49:30.167Z,17.41
2017-10-10T10:50:30.170Z,17.45
2017-10-10T10:51:30.177Z,17.41
2017-10-10T10:52:30.179Z,17.36
2017-10-10T10:53:30.183Z,16.97
2017-10-10T10:54:30.186Z,16.84
2017-10-10T10:55:30.191Z,16.97
2017-10-10T10:56:30.194Z,16.99
2017-10-10T10:57:30.198Z,16.99
2017-10-10T10:58:30.201Z,17.23
2017-10-10T10:59:30.206Z,17.20
2017-10-10T11:00:30.210Z,17.16
2017-10-10T11:01:30.214Z,17.02
2017-10-10T11:02:30.218Z,16.93
2017-10-10T11:03:30.221Z,17.06
2017-10-10T11:04:30.224Z,17.22
2017-10-10T11:05:30.231Z,17.29
2017-10-10T11:06:30.237Z,17.42
2017-10-10T11:07:30.238Z,17.76
2017-10-10T11:08:30.244Z,17.72
2017-10-10T11:09:30.247Z,17.68
2017-10-10T11:10:30.252Z,17.49
2017-10-10T11:11:30.256Z,17.27
2017-10-10T11:12:30.260Z,17.39
2017-10-10T11:13:30.265Z,17.42
2017-10-10T11:14:30.270Z,17.41
2017-10-10T11:15:30.273Z,17.42
2017-10-10T11:16:30.278Z,17.14
2017-10-10T11:17:30.282Z,16.99
2017-10-10T11:18:30.287Z,16.87
2017-10-10T11:19:30.293Z,16.86
2017-10-10T11:20:30.296Z,17.02
2017-10-10T11:21:30.301Z,16.99
2017-10-10T11:22:30.305Z,16.96
2017-10-10T11:23:30.311Z,16.74
2017-10-10T11:24:30.313Z,16.86
2017-10-10T11:25:30.318Z,16.83
2017-10-10T11:26:30.322Z,16.86
2017-10-10T11:27:30.328Z,16.96
2017-10-10T11:28:30.331Z,17.23
2017-10-10T11:29:30.343Z,17.24
2017-10-10T11:30:30.340Z,17.30
2017-10-10T11:31:30.353Z,17.31
2017-10-10T11:32:30.348Z,17.39
2017-10-10T11:33:30.351Z,17.44
2017-10-10T11:34:30.359Z,17.08
2017-10-10T11:35:30.362Z,16.83
2017-10-10T11:36:30.365Z,16.97
2017-10-10T11:37:30.371Z,17.11
2017-10-10T11:38:30.375Z,17.19
2017-10-10T11:39:30.380Z,17.31
2017-10-10T11:40:30.382Z,17.20
2017-10-10T11:41:30.386Z,17.19
2017-10-10T11:42:30.393Z,17.23
2017-10-10T11:43:30.398Z,17.16
2017-10-10T11:44:30.401Z,16.96
2017-10-10T11:45:30.405Z,16.84
2017-10-10T11:46:30.411Z,16.83
2017-10-10T11:47:30.414Z,16.75
2017-10-10T11:48:30.420Z,16.86
2017-10-10T11:49:30.423Z,16.86
2017-10-10T11:50:30.426Z,16.93
2017-10-10T11:51:30.431Z,17.08
2017-10-10T11:52:30.434Z,17.08
2017-10-10T11:53:30.440Z,17.06
2017-10-10T11:54:30.445Z,17.08
2017-10-10T11:55:30.447Z,17.11
2017-10-10T11:56:30.452Z,17.08
2017-10-10T11:57:30.456Z,17.26
2017-10-10T11:58:30.462Z,17.26
2017-10-10T11:59:30.464Z,17.30
2017-10-10T12:00:30.467Z,17.27
2017-10-10T12:01:30.472Z,17.20
2017-10-10T12:02:30.477Z,17.23
2017-10-10T12:03:30.487Z,17.06
2017-10-10T12:04:30.485Z,17.02
2017-10-10T12:05:30.491Z,17.02
2017-10-10T12:06:30.494Z,16.99
2017-10-10T12:07:30.499Z,16.91
2017-10-10T12:08:30.502Z,16.91
2017-10-10T12:09:30.506Z,16.86
2017-10-10T12:10:30.512Z,16.89
2017-10-10T12:11:30.522Z,16.99
2017-10-10T12:12:30.519Z,16.93
2017-10-10T12:13:30.522Z,16.79
2017-10-10T12:14:30.528Z,16.87
2017-10-10T12:15:30.533Z,16.93
2017-10-10T12:16:30.536Z,16.86
2017-10-10T12:17:30.541Z,16.72
2017-10-10T12:18:30.544Z,16.58
2017-10-10T12:19:30.549Z,16.58
2017-10-10T12:20:30.552Z,16.53
2017-10-10T12:21:30.556Z,16.41
2017-10-10T12:22:30.560Z,16.43
2017-10-10T12:23:30.563Z,16.35
2017-10-10T12:24:30.567Z,16.46
2017-10-10T12:25:30.570Z,16.41
2017-10-10T12:26:30.575Z,16.28
2017-10-10T12:27:30.580Z,16.36
2017-10-10T12:28:30.581Z,16.41
2017-10-10T12:29:30.584Z,16.42
2017-10-10T12:30:30.589Z,16.54
2017-10-10T12:31:30.592Z,16.42
2017-10-10T12:32:30.595Z,16.53
2017-10-10T12:33:30.599Z,16.47
2017-10-10T12:34:30.603Z,16.38
2017-10-10T12:35:30.606Z,16.43
2017-10-10T12:36:30.610Z,16.35
2017-10-10T12:37:30.614Z,16.24
2017-10-10T12:38:30.616Z,16.23
2017-10-10T12:39:30.622Z,16.17
2017-10-10T12:40:30.624Z,16.15
2017-10-10T12:41:30.626Z,16.10
2017-10-10T12:42:30.631Z,16.16
2017-10-10T12:43:30.634Z,16.20
2017-10-10T12:44:30.636Z,16.10
2017-10-10T12:45:30.641Z,16.17
2017-10-10T12:46:30.644Z,16.20
2017-10-10T12:47:30.647Z,16.16
2017-10-10T12:48:30.648Z,16.12
2017-10-10T12:49:30.653Z,16.13
2017-10-10T12:50:30.656Z,16.13
2017-10-10T12:51:30.710Z,16.08
2017-10-10T12:52:30.661Z,16.02